Time;durP1;ratioP1;P1;durP2;ratioP2;P2;SDS_P1;SDS_P2;PMS_P1;PMS_P2;Temp;Humidity;BMP_temperature;BMP_pressure;BME280_temperature;BME280_humidity;BME280_pressure;Samples;Min_cycle;Max_cycle;Signal;HPM_P1;HPM_P2
2022/05/22 00:00:09;;;;;;;1.70;1.30;;;;;;;;;;1749813;82;21017;-71
2022/05/22 00:02:40;;;;;;;1.72;1.40;;;;;;;;;;1749370;81;21074;-71
2022/05/22 00:05:06;;;;;;;1.98;1.02;;;;;;;;;;1749171;82;21486;-74
2022/05/22 00:07:32;;;;;;;2.25;1.00;;;;;;;;;;1749573;82;20985;-68
2022/05/22 00:10:01;;;;;;;1.72;1.10;;;;;;;;;;1749343;82;21053;-70
2022/05/22 00:12:28;;;;;;;2.75;1.27;;;;;;;;;;1749480;82;21029;-72
2022/05/22 00:14:54;;;;;;;1.27;1.00;;;;;;;;;;1749539;82;21068;-71
2022/05/22 00:17:20;;;;;;;2.90;1.20;;;;;;;;;;1749708;82;21076;-70
2022/05/22 00:19:48;;;;;;;1.95;1.20;;;;;;;;;;1749604;82;21084;-70
2022/05/22 00:22:14;;;;;;;3.00;1.07;;;;;;;;;;1727669;82;20997;-70
2022/05/22 00:24:40;;;;;;;2.27;2.08;;;;;;;;;;1749388;82;21088;-70
2022/05/22 00:27:06;;;;;;;2.08;1.25;;;;;;;;;;1749316;82;21028;-70
2022/05/22 00:29:36;;;;;;;0.95;0.88;;;;;;;;;;1749411;82;21112;-71
2022/05/22 00:32:02;;;;;;;1.20;1.00;;;;;;;;;;1749565;82;21009;-71
2022/05/22 00:34:29;;;;;;;3.12;1.20;;;;;;;;;;1749321;82;21627;-70
2022/05/22 00:36:55;;;;;;;2.90;1.20;;;;;;;;;;1749620;82;21001;-71
2022/05/22 00:39:21;;;;;;;4.42;1.35;;;;;;;;;;1749382;82;21096;-71
2022/05/22 00:41:50;;;;;;;2.60;1.10;;;;;;;;;;1749374;82;21560;-71
2022/05/22 00:44:16;;;;;;;1.90;1.15;;;;;;;;;;1749560;82;21064;-69
2022/05/22 00:46:42;;;;;;;1.82;1.32;;;;;;;;;;1749671;82;21002;-71
2022/05/22 00:49:10;;;;;;;3.42;1.10;;;;;;;;;;1749545;82;21084;-70
2022/05/22 00:51:38;;;;;;;1.77;1.10;;;;;;;;;;1748961;82;20993;-70
2022/05/22 00:54:05;;;;;;;2.20;1.15;;;;;;;;;;1749552;82;21596;-70
2022/05/22 00:56:35;;;;;;;1.12;1.00;;;;;;;;;;1749686;82;21049;-70
2022/05/22 00:59:01;;;;;;;1.30;1.20;;;;;;;;;;1749648;82;21084;-70
2022/05/22 01:09:50;;;;;;;1.00;1.00;;;;;;;;;;1704167;84;21041;-69
2022/05/22 01:12:19;;;;;;;2.52;1.10;;;;;;;;;;1704309;84;21091;-68
2022/05/22 01:14:48;;;;;;;2.15;1.20;;;;;;;;;;1704410;83;21044;-68
2022/05/22 01:17:16;;;;;;;1.65;1.22;;;;;;;;;;1704339;84;21123;-68
2022/05/22 01:19:44;;;;;;;3.40;1.30;;;;;;;;;;1704217;84;21072;-69
2022/05/22 01:22:13;;;;;;;1.60;1.00;;;;;;;;;;1722116;83;20988;-68
2022/05/22 01:24:41;;;;;;;1.15;1.07;;;;;;;;;;1704234;84;21060;-68
2022/05/22 01:27:08;;;;;;;1.87;1.25;;;;;;;;;;1704016;84;21099;-69
2022/05/22 01:29:48;;;;;;;3.10;1.10;;;;;;;;;;1704777;82;21483;-70
2022/05/22 01:32:14;;;;;;;4.12;1.40;;;;;;;;;;1704322;84;21602;-69
2022/05/22 01:34:43;;;;;;;1.40;1.30;;;;;;;;;;1704256;84;21491;-69
2022/05/22 01:37:11;;;;;;;2.02;1.22;;;;;;;;;;1704020;84;21055;-69
2022/05/22 01:39:40;;;;;;;1.20;1.10;;;;;;;;;;1675887;86;21087;-68
2022/05/22 01:42:06;;;;;;;1.42;1.17;;;;;;;;;;1705994;84;21032;-68
2022/05/22 01:44:32;;;;;;;1.25;1.10;;;;;;;;;;1706620;84;21008;-67
2022/05/22 01:46:58;;;;;;;1.30;1.05;;;;;;;;;;1707063;84;21007;-67
2022/05/22 01:49:26;;;;;;;2.85;1.22;;;;;;;;;;1706705;84;21032;-67
2022/05/22 01:51:54;;;;;;;1.82;1.25;;;;;;;;;;1705449;84;21080;-67
2022/05/22 01:54:20;;;;;;;1.90;1.30;;;;;;;;;;1705917;84;21149;-67
2022/05/22 01:56:47;;;;;;;1.60;1.20;;;;;;;;;;1705191;84;21071;-68
2022/05/22 01:59:14;;;;;;;1.35;1.20;;;;;;;;;;1704484;84;21092;-68
2022/05/22 02:01:53;;;;;;;1.40;1.20;;;;;;;;;;1704149;84;21028;-69
2022/05/22 02:04:20;;;;;;;3.87;1.30;;;;;;;;;;1740373;81;21606;-68
2022/05/22 02:09:34;;;;;;;2.15;1.27;;;;;;;;;;1760762;81;21079;-68
2022/05/22 02:12:01;;;;;;;4.05;1.45;;;;;;;;;;1760843;81;21566;-68
2022/05/22 02:14:29;;;;;;;1.52;1.10;;;;;;;;;;1760534;81;21044;-68
2022/05/22 02:16:58;;;;;;;1.60;1.10;;;;;;;;;;1760078;81;21364;-69
2022/05/22 02:19:25;;;;;;;2.15;1.27;;;;;;;;;;1761014;81;21072;-69
2022/05/22 02:21:51;;;;;;;2.85;1.60;;;;;;;;;;1760994;81;21024;-68
2022/05/22 02:24:19;;;;;;;4.25;1.50;;;;;;;;;;1760518;81;21659;-67
2022/05/22 02:26:47;;;;;;;1.75;1.20;;;;;;;;;;1760422;81;21099;-68
2022/05/22 02:29:14;;;;;;;2.80;1.10;;;;;;;;;;1760664;81;21170;-68
2022/05/22 02:31:40;;;;;;;3.45;1.27;;;;;;;;;;1760900;81;21095;-67
2022/05/22 02:34:06;;;;;;;1.95;1.40;;;;;;;;;;1760706;81;21056;-68
2022/05/22 02:36:32;;;;;;;2.33;1.30;;;;;;;;;;1760644;81;21064;-68
2022/05/22 02:38:59;;;;;;;2.98;1.65;;;;;;;;;;1760975;81;21092;-68
2022/05/22 02:41:25;;;;;;;5.78;1.90;;;;;;;;;;1760662;80;21104;-70
2022/05/22 02:43:53;;;;;;;1.55;1.42;;;;;;;;;;1760463;81;21009;-68
2022/05/22 02:46:20;;;;;;;3.70;1.60;;;;;;;;;;1760774;80;21052;-69
2022/05/22 02:48:48;;;;;;;2.60;1.55;;;;;;;;;;1760738;81;21028;-68
2022/05/22 02:51:16;;;;;;;2.33;1.50;;;;;;;;;;1760827;80;21036;-69
2022/05/22 02:53:42;;;;;;;1.75;1.52;;;;;;;;;;1760686;81;21005;-69
2022/05/22 02:56:12;;;;;;;2.83;1.65;;;;;;;;;;1743056;81;21539;-70
2022/05/22 02:58:58;;;;;;;1.98;1.30;;;;;;;;;;1760607;81;21024;-68
2022/05/22 03:01:24;;;;;;;2.08;1.50;;;;;;;;;;1760780;81;21024;-70
2022/05/22 03:03:50;;;;;;;5.75;1.32;;;;;;;;;;1760373;80;21104;-68
2022/05/22 03:09:02;;;;;;;3.25;1.65;;;;;;;;;;1760447;81;21099;-68
2022/05/22 03:11:29;;;;;;;1.40;1.30;;;;;;;;;;1760503;81;21127;-69
2022/05/22 03:13:57;;;;;;;2.75;1.75;;;;;;;;;;1760434;81;21053;-69
2022/05/22 03:16:24;;;;;;;1.77;1.50;;;;;;;;;;1760840;81;21051;-68
2022/05/22 03:18:55;;;;;;;2.47;1.50;;;;;;;;;;1753900;81;21103;-69
2022/05/22 03:21:21;;;;;;;5.78;1.50;;;;;;;;;;1760837;81;21029;-68
2022/05/22 03:23:49;;;;;;;2.47;1.40;;;;;;;;;;1760756;81;21040;-69
2022/05/22 03:26:16;;;;;;;3.15;1.52;;;;;;;;;;1760766;81;21092;-70
2022/05/22 03:28:43;;;;;;;2.17;1.70;;;;;;;;;;1760801;81;21072;-70
2022/05/22 03:31:09;;;;;;;5.08;1.62;;;;;;;;;;1728923;81;21056;-70
2022/05/22 03:33:35;;;;;;;1.87;1.70;;;;;;;;;;1760734;81;21025;-70
2022/05/22 03:36:01;;;;;;;4.42;1.77;;;;;;;;;;1761121;81;21028;-70
2022/05/22 03:38:28;;;;;;;2.17;1.52;;;;;;;;;;1760884;81;21068;-70
2022/05/22 03:40:55;;;;;;;3.80;1.90;;;;;;;;;;1759621;81;21021;-70
2022/05/22 03:43:22;;;;;;;4.42;1.90;;;;;;;;;;1761072;81;21193;-69
2022/05/22 03:45:49;;;;;;;3.58;1.67;;;;;;;;;;1760729;81;21079;-69
2022/05/22 03:48:15;;;;;;;4.45;1.80;;;;;;;;;;1761116;81;21456;-69
2022/05/22 03:50:42;;;;;;;4.97;2.10;;;;;;;;;;1760935;81;21051;-69
2022/05/22 03:53:09;;;;;;;2.20;1.72;;;;;;;;;;1760810;81;21118;-70
2022/05/22 03:55:37;;;;;;;3.08;1.72;;;;;;;;;;1760328;81;21005;-69
2022/05/22 03:58:04;;;;;;;2.12;1.70;;;;;;;;;;1761075;81;21042;-70
2022/05/22 04:00:31;;;;;;;6.97;2.42;;;;;;;;;;1761128;81;21548;-69
2022/05/22 04:02:59;;;;;;;2.77;1.65;;;;;;;;;;1759326;80;21144;-68
2022/05/22 04:05:25;;;;;;;2.95;1.70;;;;;;;;;;1760917;81;21597;-68
2022/05/22 04:07:51;;;;;;;2.20;1.90;;;;;;;;;;1760935;81;21044;-68
2022/05/22 04:10:19;;;;;;;4.70;1.87;;;;;;;;;;1759630;80;21552;-69
2022/05/22 04:12:45;;;;;;;3.98;1.82;;;;;;;;;;1760994;81;21051;-69
2022/05/22 04:15:16;;;;;;;3.62;2.00;;;;;;;;;;1760509;81;21064;-69
2022/05/22 04:17:42;;;;;;;2.33;1.70;;;;;;;;;;1760736;81;21570;-69
2022/05/22 04:20:12;;;;;;;3.00;1.80;;;;;;;;;;1760059;81;21578;-69
2022/05/22 04:25:26;;;;;;;4.10;1.77;;;;;;;;;;1760948;81;20996;-67
2022/05/22 04:27:53;;;;;;;2.90;1.80;;;;;;;;;;1760564;81;21563;-67
2022/05/22 04:30:20;;;;;;;3.12;1.70;;;;;;;;;;1730841;83;21039;-68
2022/05/22 04:32:49;;;;;;;1.70;1.50;;;;;;;;;;1749479;81;21084;-68
2022/05/22 04:35:15;;;;;;;3.20;1.70;;;;;;;;;;1760542;81;21060;-68
2022/05/22 04:37:45;;;;;;;1.60;1.50;;;;;;;;;;1761046;81;21060;-68
2022/05/22 04:40:11;;;;;;;1.95;1.70;;;;;;;;;;1760603;81;21025;-68
2022/05/22 04:42:38;;;;;;;2.55;1.70;;;;;;;;;;1760733;81;21068;-68
2022/05/22 04:45:06;;;;;;;5.87;1.72;;;;;;;;;;1760825;80;21028;-68
2022/05/22 04:47:46;;;;;;;2.58;1.67;;;;;;;;;;1758287;81;21636;-68
2022/05/22 04:50:15;;;;;;;2.98;1.80;;;;;;;;;;1756635;81;21079;-68
2022/05/22 04:52:58;;;;;;;1.92;1.52;;;;;;;;;;1757554;81;21113;-68
2022/05/22 04:55:24;;;;;;;2.00;1.67;;;;;;;;;;1760520;81;21084;-69
2022/05/22 04:57:51;;;;;;;2.52;1.62;;;;;;;;;;1760906;81;20993;-69
2022/05/22 05:00:17;;;;;;;2.47;1.47;;;;;;;;;;1760865;81;21027;-68
2022/05/22 05:02:47;;;;;;;2.85;1.80;;;;;;;;;;1758848;80;21119;-68
2022/05/22 05:05:13;;;;;;;3.67;1.87;;;;;;;;;;1760901;81;21076;-69
2022/05/22 05:07:41;;;;;;;3.02;1.77;;;;;;;;;;1760659;81;21536;-70
2022/05/22 05:10:27;;;;;;;2.87;1.62;;;;;;;;;;1760589;81;21088;-69
2022/05/22 05:13:00;;;;;;;2.33;1.60;;;;;;;;;;1760550;81;21378;-70
2022/05/22 05:15:29;;;;;;;2.17;1.98;;;;;;;;;;1760978;81;21040;-76
2022/05/22 05:18:00;;;;;;;3.25;1.50;;;;;;;;;;1759354;80;21048;-70
2022/05/22 05:20:27;;;;;;;1.60;1.40;;;;;;;;;;1760980;81;21028;-70
2022/05/22 05:22:55;;;;;;;1.98;1.40;;;;;;;;;;1760352;81;21127;-70
2022/05/22 05:25:23;;;;;;;2.12;1.60;;;;;;;;;;1758938;81;21048;-69
2022/05/22 05:27:49;;;;;;;1.55;1.37;;;;;;;;;;1760908;80;21055;-70
2022/05/22 05:30:17;;;;;;;3.12;1.72;;;;;;;;;;1747460;81;21087;-70
2022/05/22 05:32:46;;;;;;;1.60;1.47;;;;;;;;;;1760673;81;21020;-70
2022/05/22 05:35:15;;;;;;;2.52;1.50;;;;;;;;;;1755770;81;21176;-70
2022/05/22 05:37:40;;;;;;;2.37;1.65;;;;;;;;;;1742974;81;21089;-69
2022/05/22 05:40:09;;;;;;;1.87;1.60;;;;;;;;;;1760500;81;21085;-69
2022/05/22 05:42:40;;;;;;;3.05;1.60;;;;;;;;;;1760462;81;21071;-70
2022/05/22 05:45:08;;;;;;;1.60;1.40;;;;;;;;;;1760767;81;21516;-69
2022/05/22 05:47:43;;;;;;;2.17;1.45;;;;;;;;;;1759737;81;21060;-68
2022/05/22 05:50:13;;;;;;;6.37;1.77;;;;;;;;;;1759845;81;21072;-69
2022/05/22 05:52:54;;;;;;;2.95;1.60;;;;;;;;;;1759504;81;21051;-69
2022/05/22 05:55:39;;;;;;;2.60;1.60;;;;;;;;;;1760887;81;21045;-70
2022/05/22 05:58:26;;;;;;;3.80;1.50;;;;;;;;;;1758747;81;21063;-69
2022/05/22 06:00:54;;;;;;;2.35;1.50;;;;;;;;;;1735831;81;21119;-69
2022/05/22 06:03:22;;;;;;;2.90;1.80;;;;;;;;;;1760810;80;21979;-71
2022/05/22 06:05:51;;;;;;;2.67;1.70;;;;;;;;;;1759287;81;21088;-72
2022/05/22 06:08:18;;;;;;;2.52;1.57;;;;;;;;;;1759094;81;21028;-72
2022/05/22 06:10:46;;;;;;;2.17;1.60;;;;;;;;;;1760774;81;21610;-72
2022/05/22 06:13:15;;;;;;;3.15;1.70;;;;;;;;;;1761032;81;21535;-69
2022/05/22 06:15:44;;;;;;;1.50;1.40;;;;;;;;;;1760739;81;21520;-70
2022/05/22 06:18:11;;;;;;;3.47;1.60;;;;;;;;;;1760878;81;21060;-69
2022/05/22 06:20:38;;;;;;;1.87;1.67;;;;;;;;;;1761013;80;21079;-69
2022/05/22 06:23:06;;;;;;;1.82;1.45;;;;;;;;;;1757767;81;21052;-69
2022/05/22 06:25:53;;;;;;;1.95;1.50;;;;;;;;;;1760822;81;21413;-68
2022/05/22 06:28:21;;;;;;;1.52;1.42;;;;;;;;;;1758360;81;21119;-68
2022/05/22 06:30:52;;;;;;;2.37;1.70;;;;;;;;;;1743878;81;21008;-69
2022/05/22 06:33:34;;;;;;;2.77;1.80;;;;;;;;;;1758677;81;21655;-67
2022/05/22 06:36:12;;;;;;;1.82;1.55;;;;;;;;;;1758606;81;21087;-69
2022/05/22 06:41:46;;;;;;;3.87;1.40;;;;;;;;;;1701126;81;21499;-69
2022/05/22 06:44:30;;;;;;;1.95;1.57;;;;;;;;;;1760783;81;21616;-71
2022/05/22 06:47:03;;;;;;;2.37;1.70;;;;;;;;;;1755615;81;21040;-70
2022/05/22 06:49:31;;;;;;;1.87;1.67;;;;;;;;;;1756779;81;20981;-72
2022/05/22 06:52:02;;;;;;;2.58;1.60;;;;;;;;;;1750831;81;22064;-71
2022/05/22 06:54:45;;;;;;;;;;;;;;;;;;1762109;81;21050;-71
2022/05/22 06:57:17;;;;;;;1.87;1.50;;;;;;;;;;1758400;81;20133;-71
2022/05/22 06:59:54;;;;;;;1.70;1.50;;;;;;;;;;1725593;82;21095;-71
2022/05/22 07:02:41;;;;;;;2.60;1.70;;;;;;;;;;1657295;86;21148;-69
2022/05/22 07:05:21;;;;;;;2.80;1.55;;;;;;;;;;1694853;84;21054;-69
2022/05/22 07:08:07;;;;;;;2.90;1.60;;;;;;;;;;1732415;81;21579;-70
2022/05/22 07:13:35;;;;;;;3.52;1.70;;;;;;;;;;1759014;81;21087;-72
2022/05/22 07:16:22;;;;;;;2.37;1.65;;;;;;;;;;1760587;81;21060;-72
2022/05/22 07:21:11;;;;;;;2.90;1.80;;;;;;;;;;1802474;79;23550;-83
2022/05/22 07:23:55;;;;;;;4.35;1.42;;;;;;;;;;1764940;81;21055;-84
2022/05/22 07:26:26;;;;;;;2.77;1.57;;;;;;;;;;1763301;81;21076;-82
2022/05/22 07:28:58;;;;;;;1.52;1.37;;;;;;;;;;1745060;81;21037;-83
2022/05/22 07:31:30;;;;;;;2.80;1.60;;;;;;;;;;1759256;81;21041;-82
2022/05/22 07:34:14;;;;;;;1.55;1.45;;;;;;;;;;1762597;81;21080;-84
2022/05/22 07:37:00;;;;;;;2.05;1.60;;;;;;;;;;1762441;81;21068;-82
2022/05/22 07:39:34;;;;;;;4.15;2.02;;;;;;;;;;1725577;81;21040;-83
2022/05/22 07:42:04;;;;;;;2.75;1.70;;;;;;;;;;1740307;81;21056;-83
2022/05/22 07:44:37;;;;;;;3.12;1.67;;;;;;;;;;1760313;81;21029;-83
2022/05/22 07:47:07;;;;;;;2.62;1.62;;;;;;;;;;1690268;81;21032;-83
2022/05/22 07:52:48;;;;;;;2.33;1.30;;;;;;;;;;1761845;81;21058;-82
2022/05/22 07:55:18;;;;;;;2.17;1.55;;;;;;;;;;1757918;81;21067;-83
2022/05/22 07:57:59;;;;;;;1.70;1.60;;;;;;;;;;1715625;81;21079;-84
2022/05/22 08:00:36;;;;;;;2.08;1.80;;;;;;;;;;1690579;84;21056;-82
2022/05/22 08:03:04;;;;;;;2.02;1.37;;;;;;;;;;1735534;81;21091;-83
2022/05/22 08:05:31;;;;;;;1.50;1.40;;;;;;;;;;1728727;82;21115;-84
2022/05/22 08:07:59;;;;;;;2.67;1.60;;;;;;;;;;1728597;83;21028;-83
2022/05/22 08:10:44;;;;;;;1.92;1.45;;;;;;;;;;1728926;83;21562;-83
2022/05/22 08:13:12;;;;;;;1.98;1.22;;;;;;;;;;1728817;83;21008;-81
2022/05/22 08:15:39;;;;;;;1.60;1.40;;;;;;;;;;1728750;83;21036;-82
2022/05/22 08:18:22;;;;;;;2.27;1.77;;;;;;;;;;1727649;83;21483;-82
2022/05/22 08:20:49;;;;;;;2.27;1.55;;;;;;;;;;1716843;83;21076;-82
2022/05/22 08:23:18;;;;;;;2.72;1.60;;;;;;;;;;1713709;83;21469;-83
2022/05/22 08:25:49;;;;;;;2.53;1.60;;;;;;;;;;1712842;84;21524;-82
2022/05/22 08:28:16;;;;;;;3.45;1.87;;;;;;;;;;1713283;84;21368;-82
2022/05/22 08:30:44;;;;;;;2.00;1.57;;;;;;;;;;1712641;83;21041;-82
2022/05/22 08:33:10;;;;;;;2.52;1.40;;;;;;;;;;1712937;84;21526;-84
2022/05/22 08:35:39;;;;;;;2.50;1.65;;;;;;;;;;1691551;84;21060;-84
2022/05/22 08:38:05;;;;;;;1.90;1.60;;;;;;;;;;1712982;83;21563;-84
2022/05/22 08:40:49;;;;;;;1.45;1.35;;;;;;;;;;1712936;84;21045;-84
2022/05/22 08:43:16;;;;;;;2.52;1.10;;;;;;;;;;1712505;84;21559;-83
2022/05/22 08:45:44;;;;;;;1.57;1.20;;;;;;;;;;1712817;83;21005;-84
2022/05/22 08:48:16;;;;;;;2.10;1.50;;;;;;;;;;1712588;83;21037;-83
2022/05/22 08:50:42;;;;;;;1.80;1.52;;;;;;;;;;1712622;83;21032;-81
2022/05/22 08:53:20;;;;;;;2.67;1.50;;;;;;;;;;1713056;83;21560;-81
2022/05/22 09:01:21;;;;;;;2.20;1.67;;;;;;;;;;1712870;82;21096;-83
2022/05/22 09:03:52;;;;;;;2.35;1.30;;;;;;;;;;1691819;84;21040;-82
2022/05/22 09:06:20;;;;;;;2.27;1.70;;;;;;;;;;1713300;84;21025;-81
2022/05/22 09:08:46;;;;;;;1.82;1.60;;;;;;;;;;1712787;84;21059;-82
2022/05/22 09:11:19;;;;;;;2.00;1.50;;;;;;;;;;1713871;83;21041;-82
2022/05/22 09:13:53;;;;;;;2.33;1.60;;;;;;;;;;1714424;84;21072;-81
2022/05/22 09:16:30;;;;;;;2.07;1.57;;;;;;;;;;1714099;84;22247;-83
2022/05/22 09:18:58;;;;;;;1.40;1.30;;;;;;;;;;1713603;83;21466;-81
2022/05/22 09:21:38;;;;;;;2.37;1.35;;;;;;;;;;1720091;83;21067;-82
2022/05/22 09:24:22;;;;;;;2.87;1.40;;;;;;;;;;1720442;83;21587;-82
2022/05/22 09:27:04;;;;;;;3.10;1.82;;;;;;;;;;1720881;83;21677;-82
2022/05/22 09:29:50;;;;;;;1.98;1.32;;;;;;;;;;1720670;83;21076;-84
2022/05/22 09:32:19;;;;;;;2.55;1.45;;;;;;;;;;1720821;83;21079;-83
2022/05/22 09:34:54;;;;;;;2.10;1.35;;;;;;;;;;1721234;83;21044;-82
2022/05/22 09:37:34;;;;;;;2.08;1.30;;;;;;;;;;1720998;83;21044;-83
2022/05/22 09:40:02;;;;;;;2.45;1.10;;;;;;;;;;1721111;83;21063;-84
2022/05/22 09:42:30;;;;;;;2.55;1.65;;;;;;;;;;1721080;83;21563;-83
2022/05/22 09:45:17;;;;;;;1.35;1.10;;;;;;;;;;1720443;83;21044;-83
2022/05/22 09:47:54;;;;;;;2.75;1.77;;;;;;;;;;1720768;83;21012;-83
2022/05/22 09:50:25;;;;;;;1.60;1.42;;;;;;;;;;1721458;83;21092;-81
2022/05/22 09:52:54;;;;;;;1.37;1.27;;;;;;;;;;1722018;83;21083;-84
2022/05/22 09:55:38;;;;;;;2.33;1.55;;;;;;;;;;1720974;83;21020;-82
2022/05/22 09:58:06;;;;;;;2.25;1.20;;;;;;;;;;1720888;83;21054;-84
2022/05/22 10:00:34;;;;;;;1.57;1.47;;;;;;;;;;1711813;83;21004;-82
2022/05/22 10:03:04;;;;;;;1.40;1.30;;;;;;;;;;1722578;82;21017;-82
2022/05/22 10:05:32;;;;;;;2.12;1.40;;;;;;;;;;1723808;83;21107;-83
2022/05/22 10:08:03;;;;;;;1.20;1.10;;;;;;;;;;1721730;83;21032;-84
2022/05/22 10:10:31;;;;;;;2.70;1.30;;;;;;;;;;1720778;83;21071;-84
2022/05/22 10:12:58;;;;;;;2.72;1.65;;;;;;;;;;1721348;83;21567;-84
2022/05/22 10:15:29;;;;;;;1.60;1.50;;;;;;;;;;1721903;83;21012;-84
2022/05/22 10:18:07;;;;;;;1.40;1.30;;;;;;;;;;1721284;83;21754;-83
2022/05/22 10:20:53;;;;;;;2.50;1.27;;;;;;;;;;1720648;83;21055;-82
2022/05/22 10:23:27;;;;;;;1.32;1.27;;;;;;;;;;1721313;83;21052;-82
2022/05/22 10:25:59;;;;;;;2.77;1.50;;;;;;;;;;1721357;83;21044;-83
2022/05/22 10:28:26;;;;;;;2.25;1.50;;;;;;;;;;1721172;83;21008;-83
2022/05/22 10:31:03;;;;;;;1.75;1.40;;;;;;;;;;1721215;83;21107;-83
2022/05/22 10:33:35;;;;;;;1.77;1.50;;;;;;;;;;1721406;83;21056;-83
2022/05/22 10:36:03;;;;;;;2.60;1.60;;;;;;;;;;1720784;83;21535;-83
2022/05/22 10:38:31;;;;;;;1.77;1.60;;;;;;;;;;1720115;83;21052;-76
2022/05/22 10:43:43;;;;;;;1.60;1.40;;;;;;;;;;1712665;83;21591;-77
2022/05/22 10:46:12;;;;;;;1.52;1.42;;;;;;;;;;1717103;83;21523;-77
2022/05/22 10:48:49;;;;;;;1.55;1.45;;;;;;;;;;1720252;83;21036;-78
2022/05/22 10:51:23;;;;;;;1.42;1.27;;;;;;;;;;1720402;83;20996;-78
2022/05/22 10:53:49;;;;;;;2.90;1.65;;;;;;;;;;1714992;83;21068;-77
2022/05/22 10:56:17;;;;;;;2.17;1.60;;;;;;;;;;1714664;83;21014;-76
2022/05/22 10:58:53;;;;;;;1.75;1.57;;;;;;;;;;1714646;84;21576;-77
2022/05/22 11:01:21;;;;;;;1.82;1.50;;;;;;;;;;1714768;82;21045;-77
2022/05/22 11:03:48;;;;;;;1.70;1.50;;;;;;;;;;1720010;83;21095;-77
2022/05/22 11:06:16;;;;;;;1.35;1.25;;;;;;;;;;1719771;83;21555;-83
2022/05/22 11:08:43;;;;;;;1.32;1.20;;;;;;;;;;1717670;83;21016;-80
2022/05/22 11:11:11;;;;;;;1.70;1.40;;;;;;;;;;1715107;83;21068;-83
2022/05/22 11:13:38;;;;;;;1.57;1.47;;;;;;;;;;1713385;83;21599;-76
2022/05/22 11:16:13;;;;;;;2.30;1.60;;;;;;;;;;1716876;83;21009;-80
2022/05/22 11:18:41;;;;;;;1.62;1.50;;;;;;;;;;1719500;83;21131;-77
2022/05/22 11:21:09;;;;;;;2.10;1.45;;;;;;;;;;1715289;83;21059;-79
2022/05/22 11:23:37;;;;;;;1.85;1.60;;;;;;;;;;1712341;84;21052;-79
2022/05/22 11:26:14;;;;;;;1.55;1.40;;;;;;;;;;1712577;84;20993;-78
2022/05/22 11:28:56;;;;;;;2.27;1.75;;;;;;;;;;1710768;84;21520;-78
2022/05/22 11:31:30;;;;;;;2.15;1.70;;;;;;;;;;1712203;83;20981;-79
2022/05/22 11:34:04;;;;;;;1.90;1.57;;;;;;;;;;1707239;83;20981;-79
2022/05/22 11:36:34;;;;;;;2.02;1.52;;;;;;;;;;1710063;84;21066;-77
2022/05/22 11:39:02;;;;;;;2.83;1.70;;;;;;;;;;1710408;84;21115;-79
2022/05/22 11:41:35;;;;;;;1.47;1.37;;;;;;;;;;1707367;84;21080;-78
2022/05/22 11:44:09;;;;;;;2.30;1.55;;;;;;;;;;1696026;84;21044;-78
2022/05/22 11:46:38;;;;;;;1.72;1.30;;;;;;;;;;1710002;84;21509;-80
2022/05/22 11:49:23;;;;;;;2.17;1.32;;;;;;;;;;1696131;84;21069;-79
2022/05/22 11:51:52;;;;;;;1.60;1.50;;;;;;;;;;1680088;85;21056;-78
2022/05/22 11:54:24;;;;;;;2.52;1.42;;;;;;;;;;1680084;85;21072;-78
2022/05/22 11:57:09;;;;;;;1.72;1.40;;;;;;;;;;1669464;84;21095;-79
2022/05/22 11:59:54;;;;;;;1.20;1.10;;;;;;;;;;1707307;84;21072;-78
2022/05/22 12:02:24;;;;;;;2.72;1.47;;;;;;;;;;1710043;82;21076;-79
2022/05/22 12:04:58;;;;;;;1.50;1.40;;;;;;;;;;1710288;84;21056;-77
2022/05/22 12:07:24;;;;;;;;;;;;;;;;;;1701479;83;21017;-85
2022/05/22 12:10:07;;;;;;;2.00;1.30;;;;;;;;;;1714439;82;20147;-84
2022/05/22 12:12:38;;;;;;;1.35;1.20;;;;;;;;;;1682569;84;21036;-73
2022/05/22 12:15:09;;;;;;;2.75;1.10;;;;;;;;;;1685016;85;21024;-74
2022/05/22 12:17:41;;;;;;;1.75;1.27;;;;;;;;;;1686303;85;21041;-73
2022/05/22 12:20:25;;;;;;;1.70;1.22;;;;;;;;;;1684685;85;21073;-74
2022/05/22 12:23:08;;;;;;;2.23;1.27;;;;;;;;;;1704785;84;21049;-74
2022/05/22 12:25:38;;;;;;;1.25;1.15;;;;;;;;;;1690786;84;21049;-79
2022/05/22 12:28:06;;;;;;;2.50;2.08;;;;;;;;;;1707890;84;21080;-78
2022/05/22 12:30:34;;;;;;;1.45;1.27;;;;;;;;;;1704835;84;21064;-78
2022/05/22 12:33:06;;;;;;;1.30;1.20;;;;;;;;;;1643590;87;21135;-78
2022/05/22 12:35:34;;;;;;;1.23;1.13;;;;;;;;;;1644979;87;21080;-77
2022/05/22 12:38:03;;;;;;;1.45;1.20;;;;;;;;;;1628226;87;21064;-78
2022/05/22 12:40:43;;;;;;;1.57;1.30;;;;;;;;;;1678920;85;21102;-78
2022/05/22 12:43:13;;;;;;;1.90;1.20;;;;;;;;;;1690095;84;21163;-78
2022/05/22 12:45:40;;;;;;;1.62;1.22;;;;;;;;;;1715629;84;21542;-77
2022/05/22 12:48:25;;;;;;;2.35;1.20;;;;;;;;;;1715349;84;21077;-77
2022/05/22 12:50:52;;;;;;;1.87;1.25;;;;;;;;;;1715089;83;21061;-77
2022/05/22 12:53:20;;;;;;;1.47;1.20;;;;;;;;;;1715437;83;21521;-77
2022/05/22 12:55:47;;;;;;;1.30;1.20;;;;;;;;;;1715384;83;21029;-75
2022/05/22 12:58:30;;;;;;;1.15;1.00;;;;;;;;;;1715392;84;21132;-77
2022/05/22 13:00:57;;;;;;;2.67;1.40;;;;;;;;;;1715075;82;21180;-78
2022/05/22 13:03:25;;;;;;;1.35;1.00;;;;;;;;;;1715196;83;21096;-76
2022/05/22 13:05:56;;;;;;;1.27;1.17;;;;;;;;;;1715175;83;21315;-76
2022/05/22 13:08:30;;;;;;;1.70;1.45;;;;;;;;;;1715283;84;21081;-77
2022/05/22 13:10:58;;;;;;;1.37;1.27;;;;;;;;;;1715340;83;21551;-78
2022/05/22 13:13:28;;;;;;;1.87;1.47;;;;;;;;;;1702458;82;21033;-77
2022/05/22 13:15:59;;;;;;;1.17;1.07;;;;;;;;;;1716625;82;21617;-77
2022/05/22 13:18:25;;;;;;;1.20;1.10;;;;;;;;;;1716183;82;21047;-76
2022/05/22 13:20:53;;;;;;;1.10;1.10;;;;;;;;;;1674465;85;21549;-77
2022/05/22 13:23:25;;;;;;;1.98;1.40;;;;;;;;;;1711658;83;21084;-77
2022/05/22 13:25:53;;;;;;;1.70;1.37;;;;;;;;;;1709372;83;21044;-75
2022/05/22 13:28:21;;;;;;;1.80;1.25;;;;;;;;;;1710499;83;21040;-77
2022/05/22 13:31:05;;;;;;;1.57;1.30;;;;;;;;;;1706013;83;21017;-77
2022/05/22 13:33:32;;;;;;;1.75;1.50;;;;;;;;;;1712145;84;21020;-77
2022/05/22 13:35:59;;;;;;;1.70;1.50;;;;;;;;;;1690714;84;21016;-76
2022/05/22 13:38:25;;;;;;;2.05;1.45;;;;;;;;;;1706828;84;21520;-76
2022/05/22 13:41:02;;;;;;;2.37;1.62;;;;;;;;;;1707431;84;21033;-76
2022/05/22 13:43:36;;;;;;;1.62;1.50;;;;;;;;;;1709445;84;21049;-76
2022/05/22 13:46:20;;;;;;;1.62;1.17;;;;;;;;;;1710097;83;21484;-72
2022/05/22 13:49:04;;;;;;;1.45;1.35;;;;;;;;;;1709405;84;21504;-72
2022/05/22 13:54:25;;;;;;;1.30;1.17;;;;;;;;;;1704478;83;21036;-73
2022/05/22 13:57:01;;;;;;;1.30;1.20;;;;;;;;;;1688196;85;21046;-73
2022/05/22 13:59:30;;;;;;;1.40;1.30;;;;;;;;;;1692023;85;21101;-74
2022/05/22 14:02:01;;;;;;;1.55;1.40;;;;;;;;;;1692287;83;21610;-74
2022/05/22 14:04:27;;;;;;;1.47;1.20;;;;;;;;;;1692481;85;21613;-74
2022/05/22 14:06:53;;;;;;;2.42;1.42;;;;;;;;;;1692516;85;21090;-72
2022/05/22 14:09:21;;;;;;;1.85;1.47;;;;;;;;;;1692511;85;21541;-71
2022/05/22 14:11:51;;;;;;;2.45;1.45;;;;;;;;;;1692120;84;21086;-75
2022/05/22 14:14:22;;;;;;;2.65;1.40;;;;;;;;;;1709504;84;21049;-72
2022/05/22 14:16:52;;;;;;;1.40;1.25;;;;;;;;;;1708654;84;21109;-73
2022/05/22 14:19:20;;;;;;;2.00;1.60;;;;;;;;;;1683808;85;21373;-73
2022/05/22 14:21:47;;;;;;;1.90;1.30;;;;;;;;;;1694728;83;21080;-73
2022/05/22 14:27:05;;;;;;;2.62;1.50;;;;;;;;;;1664090;85;21087;-72
2022/05/22 14:29:32;;;;;;;2.72;1.50;;;;;;;;;;1646494;85;21061;-73
2022/05/22 14:31:58;;;;;;;3.12;1.90;;;;;;;;;;1664198;85;21012;-73
2022/05/22 14:34:28;;;;;;;2.35;1.50;;;;;;;;;;1664406;80;20975;-73
2022/05/22 14:36:54;;;;;;;1.55;1.45;;;;;;;;;;1664017;86;21123;-74
2022/05/22 14:39:20;;;;;;;1.92;1.70;;;;;;;;;;1660073;86;21006;-73
2022/05/22 14:41:47;;;;;;;3.62;1.92;;;;;;;;;;1659852;86;21125;-73
2022/05/22 14:44:15;;;;;;;4.85;1.60;;;;;;;;;;1659867;86;21002;-73
2022/05/22 14:46:48;;;;;;;2.02;1.70;;;;;;;;;;1660266;86;21071;-74
2022/05/22 14:49:17;;;;;;;2.80;1.60;;;;;;;;;;1660106;86;21128;-75
2022/05/22 14:52:03;;;;;;;3.02;1.62;;;;;;;;;;1659870;86;21067;-75
2022/05/22 14:54:32;;;;;;;3.05;1.85;;;;;;;;;;1660221;86;21015;-74
2022/05/22 14:57:03;;;;;;;3.65;1.70;;;;;;;;;;1659826;86;21109;-74
2022/05/22 14:59:31;;;;;;;5.47;2.37;;;;;;;;;;1669310;85;21076;-74
2022/05/22 15:01:57;;;;;;;1.82;1.60;;;;;;;;;;1667854;83;21715;-74
2022/05/22 15:04:26;;;;;;;2.77;2.00;;;;;;;;;;1673582;85;20990;-73
2022/05/22 15:07:02;;;;;;;2.55;1.40;;;;;;;;;;1664322;85;21021;-73
2022/05/22 15:09:33;;;;;;;3.25;2.00;;;;;;;;;;1659946;86;21123;-73
2022/05/22 15:12:04;;;;;;;2.45;1.90;;;;;;;;;;1660178;86;21104;-74
2022/05/22 15:14:31;;;;;;;3.85;2.10;;;;;;;;;;1659868;85;21066;-73
2022/05/22 15:16:59;;;;;;;3.05;2.10;;;;;;;;;;1673025;85;21111;-73
2022/05/22 15:19:51;;;;;;;2.58;1.90;;;;;;;;;;1688270;85;21560;-73
2022/05/22 15:25:27;;;;;;;2.60;1.90;;;;;;;;;;1665820;85;21017;-72
2022/05/22 15:27:54;;;;;;;2.83;1.90;;;;;;;;;;1656247;85;21048;-72
2022/05/22 15:30:22;;;;;;;3.67;2.10;;;;;;;;;;1651940;87;21557;-75
2022/05/22 15:32:49;;;;;;;3.33;2.12;;;;;;;;;;1651519;87;21648;-73
2022/05/22 15:35:17;;;;;;;3.20;2.30;;;;;;;;;;1655396;86;21011;-72
2022/05/22 15:37:46;;;;;;;4.28;1.72;;;;;;;;;;1656388;86;21124;-73
2022/05/22 15:40:14;;;;;;;4.10;2.00;;;;;;;;;;1687814;85;21048;-72
2022/05/22 15:42:49;;;;;;;3.50;2.17;;;;;;;;;;1678778;85;21095;-72
2022/05/22 15:45:17;;;;;;;3.42;1.90;;;;;;;;;;1711235;84;21051;-73
2022/05/22 15:47:43;;;;;;;4.58;2.60;;;;;;;;;;1712403;84;21079;-73